sensor_id;sensor_type;location;lat;lon;timestamp;P1;durP1;ratioP1;P2;durP2;ratioP2
3253;SDS011;1639;42.804;23.342;2023-12-20T00:01:00;98.50;;;39.50;;
3253;SDS011;1639;42.804;23.342;2023-12-20T00:03:25;56.37;;;37.07;;
3253;SDS011;1639;42.804;23.342;2023-12-20T00:05:51;58.90;;;34.23;;
3253;SDS011;1639;42.804;23.342;2023-12-20T00:08:16;54.43;;;34.57;;
3253;SDS011;1639;42.804;23.342;2023-12-20T00:10:42;61.80;;;36.27;;
3253;SDS011;1639;42.804;23.342;2023-12-20T00:13:08;80.77;;;36.33;;
3253;SDS011;1639;42.804;23.342;2023-12-20T00:15:34;38.27;;;31.73;;
3253;SDS011;1639;42.804;23.342;2023-12-20T00:17:59;80.10;;;35.37;;
3253;SDS011;1639;42.804;23.342;2023-12-20T00:20:26;40.43;;;31.10;;
3253;SDS011;1639;42.804;23.342;2023-12-20T00:22:51;43.93;;;33.70;;
3253;SDS011;1639;42.804;23.342;2023-12-20T00:25:17;33.30;;;29.80;;
3253;SDS011;1639;42.804;23.342;2023-12-20T00:27:43;55.37;;;37.90;;
3253;SDS011;1639;42.804;23.342;2023-12-20T00:30:08;48.37;;;33.27;;
3253;SDS011;1639;42.804;23.342;2023-12-20T00:32:34;91.07;;;42.33;;
3253;SDS011;1639;42.804;23.342;2023-12-20T00:35:00;75.93;;;42.57;;
3253;SDS011;1639;42.804;23.342;2023-12-20T00:37:26;96.00;;;48.40;;
3253;SDS011;1639;42.804;23.342;2023-12-20T00:39:51;48.70;;;38.47;;
3253;SDS011;1639;42.804;23.342;2023-12-20T00:42:17;60.47;;;41.97;;
3253;SDS011;1639;42.804;23.342;2023-12-20T00:44:42;69.97;;;48.63;;
3253;SDS011;1639;42.804;23.342;2023-12-20T00:47:08;76.20;;;44.97;;
3253;SDS011;1639;42.804;23.342;2023-12-20T00:49:33;72.63;;;47.63;;
3253;SDS011;1639;42.804;23.342;2023-12-20T00:51:58;50.83;;;39.90;;
3253;SDS011;1639;42.804;23.342;2023-12-20T00:54:24;48.90;;;42.57;;
3253;SDS011;1639;42.804;23.342;2023-12-20T00:56:49;68.00;;;39.40;;
3253;SDS011;1639;42.804;23.342;2023-12-20T00:59:16;54.20;;;42.37;;
3253;SDS011;1639;42.804;23.342;2023-12-20T01:01:41;70.07;;;45.03;;
3253;SDS011;1639;42.804;23.342;2023-12-20T01:04:07;102.23;;;48.30;;
3253;SDS011;1639;42.804;23.342;2023-12-20T01:06:32;64.30;;;42.43;;
3253;SDS011;1639;42.804;23.342;2023-12-20T01:08:58;85.60;;;48.50;;
3253;SDS011;1639;42.804;23.342;2023-12-20T01:11:23;83.67;;;45.63;;
3253;SDS011;1639;42.804;23.342;2023-12-20T01:13:49;69.77;;;36.90;;
3253;SDS011;1639;42.804;23.342;2023-12-20T01:16:14;114.13;;;55.50;;
3253;SDS011;1639;42.804;23.342;2023-12-20T01:18:39;63.20;;;44.67;;
3253;SDS011;1639;42.804;23.342;2023-12-20T01:21:05;55.17;;;41.50;;
3253;SDS011;1639;42.804;23.342;2023-12-20T01:23:30;97.93;;;47.13;;
3253;SDS011;1639;42.804;23.342;2023-12-20T01:25:57;104.70;;;53.13;;
3253;SDS011;1639;42.804;23.342;2023-12-20T01:28:24;97.13;;;39.53;;
3253;SDS011;1639;42.804;23.342;2023-12-20T01:30:50;124.03;;;45.67;;
3253;SDS011;1639;42.804;23.342;2023-12-20T01:33:15;55.90;;;33.77;;
3253;SDS011;1639;42.804;23.342;2023-12-20T01:35:41;103.57;;;37.93;;
3253;SDS011;1639;42.804;23.342;2023-12-20T01:38:06;106.70;;;48.07;;
3253;SDS011;1639;42.804;23.342;2023-12-20T01:40:32;140.90;;;52.57;;
3253;SDS011;1639;42.804;23.342;2023-12-20T01:43:07;99.20;;;48.40;;
3253;SDS011;1639;42.804;23.342;2023-12-20T01:45:33;51.97;;;32.73;;
3253;SDS011;1639;42.804;23.342;2023-12-20T01:47:59;83.57;;;38.40;;
3253;SDS011;1639;42.804;23.342;2023-12-20T01:50:26;59.73;;;34.47;;
3253;SDS011;1639;42.804;23.342;2023-12-20T01:52:52;58.70;;;26.90;;
3253;SDS011;1639;42.804;23.342;2023-12-20T01:55:20;55.57;;;27.80;;
3253;SDS011;1639;42.804;23.342;2023-12-20T01:57:46;47.20;;;25.90;;
3253;SDS011;1639;42.804;23.342;2023-12-20T02:00:12;46.53;;;26.10;;
3253;SDS011;1639;42.804;23.342;2023-12-20T02:02:39;44.37;;;21.13;;
3253;SDS011;1639;42.804;23.342;2023-12-20T02:05:05;26.70;;;21.50;;
3253;SDS011;1639;42.804;23.342;2023-12-20T02:07:32;70.30;;;26.53;;
3253;SDS011;1639;42.804;23.342;2023-12-20T02:09:59;37.13;;;23.43;;
3253;SDS011;1639;42.804;23.342;2023-12-20T02:12:24;38.93;;;25.13;;
3253;SDS011;1639;42.804;23.342;2023-12-20T02:14:49;41.73;;;26.13;;
3253;SDS011;1639;42.804;23.342;2023-12-20T02:17:15;44.40;;;24.20;;
3253;SDS011;1639;42.804;23.342;2023-12-20T02:19:41;28.03;;;22.60;;
3253;SDS011;1639;42.804;23.342;2023-12-20T02:22:09;30.60;;;21.23;;
3253;SDS011;1639;42.804;23.342;2023-12-20T02:24:38;28.10;;;19.20;;
3253;SDS011;1639;42.804;23.342;2023-12-20T02:27:05;38.13;;;21.17;;
3253;SDS011;1639;42.804;23.342;2023-12-20T02:29:32;26.50;;;19.57;;
3253;SDS011;1639;42.804;23.342;2023-12-20T02:32:01;33.13;;;27.07;;
3253;SDS011;1639;42.804;23.342;2023-12-20T02:34:27;39.37;;;20.07;;
3253;SDS011;1639;42.804;23.342;2023-12-20T02:36:53;35.83;;;21.67;;
3253;SDS011;1639;42.804;23.342;2023-12-20T02:39:18;35.53;;;23.10;;
3253;SDS011;1639;42.804;23.342;2023-12-20T02:41:44;35.70;;;21.67;;
3253;SDS011;1639;42.804;23.342;2023-12-20T02:44:10;36.03;;;23.03;;
3253;SDS011;1639;42.804;23.342;2023-12-20T02:46:35;33.93;;;25.43;;
3253;SDS011;1639;42.804;23.342;2023-12-20T02:49:01;28.43;;;23.67;;
3253;SDS011;1639;42.804;23.342;2023-12-20T02:51:26;28.93;;;21.90;;
3253;SDS011;1639;42.804;23.342;2023-12-20T02:53:51;34.40;;;30.17;;
3253;SDS011;1639;42.804;23.342;2023-12-20T02:56:17;23.47;;;20.00;;
3253;SDS011;1639;42.804;23.342;2023-12-20T02:58:42;34.53;;;23.10;;
3253;SDS011;1639;42.804;23.342;2023-12-20T03:01:08;39.07;;;24.57;;
3253;SDS011;1639;42.804;23.342;2023-12-20T03:03:33;30.00;;;20.17;;
3253;SDS011;1639;42.804;23.342;2023-12-20T03:05:59;37.90;;;27.20;;
3253;SDS011;1639;42.804;23.342;2023-12-20T03:08:24;36.50;;;25.10;;
3253;SDS011;1639;42.804;23.342;2023-12-20T03:10:50;39.83;;;26.60;;
3253;SDS011;1639;42.804;23.342;2023-12-20T03:13:15;51.13;;;26.70;;
3253;SDS011;1639;42.804;23.342;2023-12-20T03:15:41;41.20;;;23.50;;
3253;SDS011;1639;42.804;23.342;2023-12-20T03:18:06;43.33;;;28.10;;
3253;SDS011;1639;42.804;23.342;2023-12-20T03:20:31;48.63;;;26.30;;
3253;SDS011;1639;42.804;23.342;2023-12-20T03:22:59;51.13;;;25.67;;
3253;SDS011;1639;42.804;23.342;2023-12-20T03:25:25;51.67;;;31.27;;
3253;SDS011;1639;42.804;23.342;2023-12-20T03:27:50;93.73;;;28.53;;
3253;SDS011;1639;42.804;23.342;2023-12-20T03:30:15;71.40;;;31.23;;
3253;SDS011;1639;42.804;23.342;2023-12-20T03:32:41;35.33;;;23.30;;
3253;SDS011;1639;42.804;23.342;2023-12-20T03:35:06;52.67;;;23.27;;
3253;SDS011;1639;42.804;23.342;2023-12-20T03:37:32;43.23;;;22.77;;
3253;SDS011;1639;42.804;23.342;2023-12-20T03:39:57;42.93;;;23.73;;
3253;SDS011;1639;42.804;23.342;2023-12-20T03:42:22;21.50;;;18.53;;
3253;SDS011;1639;42.804;23.342;2023-12-20T03:44:48;40.97;;;22.57;;
3253;SDS011;1639;42.804;23.342;2023-12-20T03:47:13;50.13;;;25.60;;
3253;SDS011;1639;42.804;23.342;2023-12-20T03:49:39;36.73;;;22.50;;
3253;SDS011;1639;42.804;23.342;2023-12-20T03:52:04;44.93;;;24.10;;
3253;SDS011;1639;42.804;23.342;2023-12-20T03:54:30;35.23;;;18.30;;
3253;SDS011;1639;42.804;23.342;2023-12-20T03:56:55;42.30;;;21.60;;
3253;SDS011;1639;42.804;23.342;2023-12-20T03:59:21;50.60;;;20.93;;
3253;SDS011;1639;42.804;23.342;2023-12-20T04:01:46;32.50;;;22.23;;
3253;SDS011;1639;42.804;23.342;2023-12-20T04:04:13;26.03;;;17.77;;
3253;SDS011;1639;42.804;23.342;2023-12-20T04:06:38;29.73;;;20.60;;
3253;SDS011;1639;42.804;23.342;2023-12-20T04:09:04;46.53;;;22.90;;
3253;SDS011;1639;42.804;23.342;2023-12-20T04:11:29;30.37;;;21.40;;
3253;SDS011;1639;42.804;23.342;2023-12-20T04:13:55;24.93;;;19.30;;
3253;SDS011;1639;42.804;23.342;2023-12-20T04:16:20;48.87;;;27.20;;
3253;SDS011;1639;42.804;23.342;2023-12-20T04:18:46;40.17;;;20.87;;
3253;SDS011;1639;42.804;23.342;2023-12-20T04:21:11;73.10;;;24.40;;
3253;SDS011;1639;42.804;23.342;2023-12-20T04:23:36;32.70;;;19.07;;
3253;SDS011;1639;42.804;23.342;2023-12-20T04:26:02;29.10;;;21.57;;
3253;SDS011;1639;42.804;23.342;2023-12-20T04:28:27;28.87;;;15.87;;
3253;SDS011;1639;42.804;23.342;2023-12-20T04:30:55;36.53;;;22.63;;
3253;SDS011;1639;42.804;23.342;2023-12-20T04:33:21;17.77;;;14.27;;
3253;SDS011;1639;42.804;23.342;2023-12-20T04:35:46;59.80;;;21.53;;
3253;SDS011;1639;42.804;23.342;2023-12-20T04:38:12;29.60;;;16.13;;
3253;SDS011;1639;42.804;23.342;2023-12-20T04:40:37;35.43;;;18.57;;
3253;SDS011;1639;42.804;23.342;2023-12-20T04:43:03;46.47;;;17.67;;
3253;SDS011;1639;42.804;23.342;2023-12-20T04:45:29;31.60;;;15.07;;
3253;SDS011;1639;42.804;23.342;2023-12-20T04:47:54;36.60;;;19.57;;
3253;SDS011;1639;42.804;23.342;2023-12-20T04:50:20;20.90;;;16.83;;
3253;SDS011;1639;42.804;23.342;2023-12-20T04:52:46;54.50;;;16.97;;
3253;SDS011;1639;42.804;23.342;2023-12-20T04:55:12;23.33;;;14.07;;
3253;SDS011;1639;42.804;23.342;2023-12-20T04:57:37;24.70;;;15.60;;
3253;SDS011;1639;42.804;23.342;2023-12-20T05:00:03;37.33;;;18.03;;
3253;SDS011;1639;42.804;23.342;2023-12-20T05:02:29;41.10;;;17.10;;
3253;SDS011;1639;42.804;23.342;2023-12-20T05:04:55;21.23;;;16.63;;
3253;SDS011;1639;42.804;23.342;2023-12-20T05:07:20;26.23;;;16.40;;
3253;SDS011;1639;42.804;23.342;2023-12-20T05:09:45;34.63;;;14.77;;
3253;SDS011;1639;42.804;23.342;2023-12-20T05:12:11;39.00;;;18.90;;
3253;SDS011;1639;42.804;23.342;2023-12-20T05:14:36;30.67;;;13.77;;
3253;SDS011;1639;42.804;23.342;2023-12-20T05:17:02;44.53;;;17.90;;
3253;SDS011;1639;42.804;23.342;2023-12-20T05:19:28;32.97;;;13.97;;
3253;SDS011;1639;42.804;23.342;2023-12-20T05:21:53;48.63;;;15.80;;
3253;SDS011;1639;42.804;23.342;2023-12-20T05:24:19;38.00;;;16.97;;
3253;SDS011;1639;42.804;23.342;2023-12-20T05:26:44;27.33;;;15.80;;
3253;SDS011;1639;42.804;23.342;2023-12-20T05:29:09;43.37;;;18.97;;
3253;SDS011;1639;42.804;23.342;2023-12-20T05:31:35;30.03;;;16.73;;
3253;SDS011;1639;42.804;23.342;2023-12-20T05:34:00;19.13;;;15.10;;
3253;SDS011;1639;42.804;23.342;2023-12-20T05:36:26;30.93;;;18.67;;
3253;SDS011;1639;42.804;23.342;2023-12-20T05:38:51;18.40;;;14.50;;
3253;SDS011;1639;42.804;23.342;2023-12-20T05:41:16;25.40;;;15.73;;
3253;SDS011;1639;42.804;23.342;2023-12-20T05:43:42;19.23;;;14.40;;
3253;SDS011;1639;42.804;23.342;2023-12-20T05:46:07;23.67;;;17.43;;
3253;SDS011;1639;42.804;23.342;2023-12-20T05:48:35;29.80;;;16.67;;
3253;SDS011;1639;42.804;23.342;2023-12-20T05:51:00;49.60;;;21.30;;
3253;SDS011;1639;42.804;23.342;2023-12-20T05:53:26;45.63;;;21.47;;
3253;SDS011;1639;42.804;23.342;2023-12-20T05:55:51;47.20;;;17.90;;
3253;SDS011;1639;42.804;23.342;2023-12-20T05:58:16;33.37;;;18.63;;
3253;SDS011;1639;42.804;23.342;2023-12-20T06:00:42;42.37;;;19.30;;
3253;SDS011;1639;42.804;23.342;2023-12-20T06:03:07;29.90;;;15.67;;
3253;SDS011;1639;42.804;23.342;2023-12-20T06:05:32;46.57;;;20.80;;
3253;SDS011;1639;42.804;23.342;2023-12-20T06:07:58;64.03;;;22.60;;
3253;SDS011;1639;42.804;23.342;2023-12-20T06:10:26;26.60;;;20.00;;
3253;SDS011;1639;42.804;23.342;2023-12-20T06:12:52;51.60;;;19.60;;
3253;SDS011;1639;42.804;23.342;2023-12-20T06:15:17;18.27;;;14.20;;
3253;SDS011;1639;42.804;23.342;2023-12-20T06:17:43;28.60;;;16.87;;
3253;SDS011;1639;42.804;23.342;2023-12-20T06:20:09;25.00;;;16.23;;
3253;SDS011;1639;42.804;23.342;2023-12-20T06:22:35;31.73;;;19.53;;
3253;SDS011;1639;42.804;23.342;2023-12-20T06:25:01;33.77;;;15.67;;
3253;SDS011;1639;42.804;23.342;2023-12-20T06:27:27;72.90;;;23.00;;
3253;SDS011;1639;42.804;23.342;2023-12-20T06:29:53;46.50;;;20.87;;
3253;SDS011;1639;42.804;23.342;2023-12-20T06:32:19;40.87;;;22.67;;
3253;SDS011;1639;42.804;23.342;2023-12-20T06:34:44;39.40;;;22.27;;
3253;SDS011;1639;42.804;23.342;2023-12-20T06:37:10;44.43;;;24.07;;
3253;SDS011;1639;42.804;23.342;2023-12-20T06:39:35;60.37;;;30.00;;
3253;SDS011;1639;42.804;23.342;2023-12-20T06:42:01;63.43;;;26.70;;
3253;SDS011;1639;42.804;23.342;2023-12-20T06:44:26;32.70;;;20.77;;
3253;SDS011;1639;42.804;23.342;2023-12-20T06:46:51;43.27;;;23.03;;
3253;SDS011;1639;42.804;23.342;2023-12-20T06:49:17;91.87;;;31.10;;
3253;SDS011;1639;42.804;23.342;2023-12-20T06:51:43;43.77;;;24.83;;
3253;SDS011;1639;42.804;23.342;2023-12-20T06:54:08;19.40;;;15.87;;
3253;SDS011;1639;42.804;23.342;2023-12-20T06:56:34;69.20;;;26.97;;
3253;SDS011;1639;42.804;23.342;2023-12-20T06:58:59;42.00;;;20.73;;
3253;SDS011;1639;42.804;23.342;2023-12-20T07:01:25;32.83;;;25.20;;
3253;SDS011;1639;42.804;23.342;2023-12-20T07:03:50;55.77;;;27.00;;
3253;SDS011;1639;42.804;23.342;2023-12-20T07:06:15;37.00;;;22.27;;
3253;SDS011;1639;42.804;23.342;2023-12-20T07:08:42;36.03;;;22.50;;
3253;SDS011;1639;42.804;23.342;2023-12-20T07:11:07;63.63;;;27.97;;
3253;SDS011;1639;42.804;23.342;2023-12-20T07:13:32;47.97;;;30.27;;
3253;SDS011;1639;42.804;23.342;2023-12-20T07:15:58;54.40;;;25.33;;
3253;SDS011;1639;42.804;23.342;2023-12-20T07:18:23;14.80;;;10.37;;
3253;SDS011;1639;42.804;23.342;2023-12-20T07:20:49;43.80;;;29.77;;
3253;SDS011;1639;42.804;23.342;2023-12-20T07:23:14;60.87;;;28.83;;
3253;SDS011;1639;42.804;23.342;2023-12-20T07:25:39;84.77;;;30.73;;
3253;SDS011;1639;42.804;23.342;2023-12-20T07:28:05;61.43;;;29.10;;
3253;SDS011;1639;42.804;23.342;2023-12-20T07:30:30;41.33;;;22.63;;
3253;SDS011;1639;42.804;23.342;2023-12-20T07:32:56;42.60;;;21.60;;
3253;SDS011;1639;42.804;23.342;2023-12-20T07:35:23;61.30;;;31.37;;
3253;SDS011;1639;42.804;23.342;2023-12-20T07:37:48;42.67;;;28.13;;
3253;SDS011;1639;42.804;23.342;2023-12-20T07:40:14;43.33;;;24.43;;
3253;SDS011;1639;42.804;23.342;2023-12-20T07:42:42;60.13;;;25.97;;
3253;SDS011;1639;42.804;23.342;2023-12-20T07:45:07;57.07;;;27.87;;
3253;SDS011;1639;42.804;23.342;2023-12-20T07:47:33;126.43;;;37.80;;
3253;SDS011;1639;42.804;23.342;2023-12-20T07:49:58;63.80;;;30.97;;
3253;SDS011;1639;42.804;23.342;2023-12-20T07:52:23;43.87;;;26.60;;
3253;SDS011;1639;42.804;23.342;2023-12-20T07:54:49;60.70;;;27.93;;
3253;SDS011;1639;42.804;23.342;2023-12-20T07:57:14;46.57;;;29.27;;
3253;SDS011;1639;42.804;23.342;2023-12-20T07:59:39;40.40;;;24.80;;
3253;SDS011;1639;42.804;23.342;2023-12-20T08:02:05;38.43;;;25.90;;
3253;SDS011;1639;42.804;23.342;2023-12-20T08:04:31;51.17;;;25.87;;
3253;SDS011;1639;42.804;23.342;2023-12-20T08:06:57;66.70;;;31.00;;
3253;SDS011;1639;42.804;23.342;2023-12-20T08:09:23;42.77;;;26.93;;
3253;SDS011;1639;42.804;23.342;2023-12-20T08:11:48;43.93;;;29.90;;
3253;SDS011;1639;42.804;23.342;2023-12-20T08:14:14;39.93;;;30.27;;
3253;SDS011;1639;42.804;23.342;2023-12-20T08:16:40;53.90;;;31.50;;
3253;SDS011;1639;42.804;23.342;2023-12-20T08:19:05;46.30;;;25.60;;
3253;SDS011;1639;42.804;23.342;2023-12-20T08:21:30;69.33;;;38.30;;
3253;SDS011;1639;42.804;23.342;2023-12-20T08:23:56;63.43;;;37.67;;
3253;SDS011;1639;42.804;23.342;2023-12-20T08:26:21;66.13;;;30.70;;
3253;SDS011;1639;42.804;23.342;2023-12-20T08:28:49;40.47;;;25.30;;
3253;SDS011;1639;42.804;23.342;2023-12-20T08:31:15;31.03;;;21.00;;
3253;SDS011;1639;42.804;23.342;2023-12-20T08:33:42;52.27;;;24.20;;
3253;SDS011;1639;42.804;23.342;2023-12-20T08:36:09;69.80;;;30.60;;
3253;SDS011;1639;42.804;23.342;2023-12-20T08:38:35;51.77;;;26.27;;
3253;SDS011;1639;42.804;23.342;2023-12-20T08:41:01;40.17;;;25.50;;
3253;SDS011;1639;42.804;23.342;2023-12-20T08:43:27;49.60;;;20.97;;
3253;SDS011;1639;42.804;23.342;2023-12-20T08:45:53;35.23;;;22.70;;
3253;SDS011;1639;42.804;23.342;2023-12-20T08:48:19;28.57;;;23.77;;
3253;SDS011;1639;42.804;23.342;2023-12-20T08:50:44;24.87;;;21.80;;
3253;SDS011;1639;42.804;23.342;2023-12-20T08:53:10;30.20;;;24.60;;
3253;SDS011;1639;42.804;23.342;2023-12-20T08:55:35;45.30;;;16.50;;
3253;SDS011;1639;42.804;23.342;2023-12-20T08:58:00;24.33;;;17.00;;
3253;SDS011;1639;42.804;23.342;2023-12-20T09:00:26;30.30;;;20.53;;
3253;SDS011;1639;42.804;23.342;2023-12-20T09:02:53;40.97;;;23.53;;
3253;SDS011;1639;42.804;23.342;2023-12-20T09:05:19;37.40;;;21.13;;
3253;SDS011;1639;42.804;23.342;2023-12-20T09:07:44;30.03;;;17.37;;
3253;SDS011;1639;42.804;23.342;2023-12-20T09:10:10;36.43;;;22.10;;
3253;SDS011;1639;42.804;23.342;2023-12-20T09:12:35;26.43;;;17.90;;
3253;SDS011;1639;42.804;23.342;2023-12-20T09:15:04;35.87;;;21.20;;
3253;SDS011;1639;42.804;23.342;2023-12-20T09:17:30;34.73;;;20.20;;
3253;SDS011;1639;42.804;23.342;2023-12-20T09:19:56;48.30;;;21.67;;
3253;SDS011;1639;42.804;23.342;2023-12-20T09:22:21;35.77;;;18.30;;
3253;SDS011;1639;42.804;23.342;2023-12-20T09:24:47;24.70;;;19.70;;
3253;SDS011;1639;42.804;23.342;2023-12-20T09:27:12;34.90;;;20.30;;
3253;SDS011;1639;42.804;23.342;2023-12-20T09:29:38;25.47;;;20.53;;
3253;SDS011;1639;42.804;23.342;2023-12-20T09:32:03;42.83;;;21.53;;
3253;SDS011;1639;42.804;23.342;2023-12-20T09:34:29;50.90;;;22.60;;
3253;SDS011;1639;42.804;23.342;2023-12-20T09:36:54;24.13;;;19.87;;
3253;SDS011;1639;42.804;23.342;2023-12-20T09:39:20;39.57;;;23.63;;
3253;SDS011;1639;42.804;23.342;2023-12-20T09:42:02;47.03;;;34.63;;
3253;SDS011;1639;42.804;23.342;2023-12-20T09:44:29;53.20;;;32.00;;
3253;SDS011;1639;42.804;23.342;2023-12-20T09:46:56;29.83;;;26.50;;
3253;SDS011;1639;42.804;23.342;2023-12-20T09:49:22;37.30;;;25.10;;
3253;SDS011;1639;42.804;23.342;2023-12-20T09:51:48;35.40;;;22.13;;
3253;SDS011;1639;42.804;23.342;2023-12-20T09:54:17;34.70;;;26.30;;
3253;SDS011;1639;42.804;23.342;2023-12-20T09:56:43;42.80;;;21.83;;
3253;SDS011;1639;42.804;23.342;2023-12-20T09:59:09;39.10;;;24.77;;
3253;SDS011;1639;42.804;23.342;2023-12-20T10:01:35;32.07;;;25.17;;
3253;SDS011;1639;42.804;23.342;2023-12-20T10:04:01;36.47;;;26.60;;
3253;SDS011;1639;42.804;23.342;2023-12-20T10:06:40;34.50;;;28.73;;
3253;SDS011;1639;42.804;23.342;2023-12-20T10:09:06;43.43;;;35.43;;
3253;SDS011;1639;42.804;23.342;2023-12-20T10:11:32;32.97;;;27.13;;
3253;SDS011;1639;42.804;23.342;2023-12-20T10:13:59;53.60;;;33.60;;
3253;SDS011;1639;42.804;23.342;2023-12-20T10:16:26;49.80;;;30.40;;
3253;SDS011;1639;42.804;23.342;2023-12-20T10:18:52;50.17;;;34.00;;
3253;SDS011;1639;42.804;23.342;2023-12-20T10:21:18;64.70;;;30.57;;
3253;SDS011;1639;42.804;23.342;2023-12-20T10:23:44;29.77;;;22.30;;
3253;SDS011;1639;42.804;23.342;2023-12-20T10:26:10;36.10;;;25.03;;
3253;SDS011;1639;42.804;23.342;2023-12-20T10:28:44;40.40;;;23.80;;
3253;SDS011;1639;42.804;23.342;2023-12-20T10:31:09;44.70;;;29.20;;
3253;SDS011;1639;42.804;23.342;2023-12-20T10:33:35;33.87;;;26.43;;
3253;SDS011;1639;42.804;23.342;2023-12-20T10:36:00;45.57;;;29.33;;
3253;SDS011;1639;42.804;23.342;2023-12-20T10:38:25;38.53;;;26.23;;
3253;SDS011;1639;42.804;23.342;2023-12-20T10:40:54;47.53;;;31.67;;
3253;SDS011;1639;42.804;23.342;2023-12-20T10:43:24;42.80;;;33.10;;
3253;SDS011;1639;42.804;23.342;2023-12-20T10:45:51;38.67;;;33.73;;
3253;SDS011;1639;42.804;23.342;2023-12-20T10:48:17;36.83;;;32.53;;
3253;SDS011;1639;42.804;23.342;2023-12-20T10:50:43;40.73;;;36.10;;
3253;SDS011;1639;42.804;23.342;2023-12-20T10:53:10;35.80;;;32.00;;
3253;SDS011;1639;42.804;23.342;2023-12-20T10:55:37;39.33;;;34.77;;
3253;SDS011;1639;42.804;23.342;2023-12-20T10:58:09;50.70;;;33.40;;
3253;SDS011;1639;42.804;23.342;2023-12-20T11:00:39;44.10;;;30.73;;
3253;SDS011;1639;42.804;23.342;2023-12-20T11:03:09;39.43;;;29.00;;
3253;SDS011;1639;42.804;23.342;2023-12-20T11:13:26;64.63;;;35.77;;
3253;SDS011;1639;42.804;23.342;2023-12-20T11:15:56;52.27;;;38.80;;
3253;SDS011;1639;42.804;23.342;2023-12-20T11:18:28;91.83;;;47.27;;
3253;SDS011;1639;42.804;23.342;2023-12-20T11:20:54;53.17;;;40.50;;
3253;SDS011;1639;42.804;23.342;2023-12-20T11:23:20;39.77;;;31.67;;
3253;SDS011;1639;42.804;23.342;2023-12-20T11:25:49;61.23;;;29.37;;
3253;SDS011;1639;42.804;23.342;2023-12-20T11:28:20;54.50;;;37.40;;
3253;SDS011;1639;42.804;23.342;2023-12-20T11:30:48;47.43;;;33.93;;
3253;SDS011;1639;42.804;23.342;2023-12-20T11:33:16;42.60;;;38.00;;
3253;SDS011;1639;42.804;23.342;2023-12-20T11:35:46;60.03;;;40.80;;
3253;SDS011;1639;42.804;23.342;2023-12-20T11:38:13;61.93;;;40.20;;
3253;SDS011;1639;42.804;23.342;2023-12-20T11:40:42;61.97;;;42.63;;
3253;SDS011;1639;42.804;23.342;2023-12-20T11:43:08;51.63;;;29.70;;
3253;SDS011;1639;42.804;23.342;2023-12-20T11:45:34;93.90;;;34.30;;
3253;SDS011;1639;42.804;23.342;2023-12-20T11:48:00;64.83;;;41.00;;
3253;SDS011;1639;42.804;23.342;2023-12-20T11:50:27;45.73;;;38.53;;
3253;SDS011;1639;42.804;23.342;2023-12-20T11:52:54;50.47;;;40.63;;
3253;SDS011;1639;42.804;23.342;2023-12-20T11:55:21;67.17;;;42.00;;
3253;SDS011;1639;42.804;23.342;2023-12-20T11:57:47;70.10;;;42.00;;
3253;SDS011;1639;42.804;23.342;2023-12-20T12:00:13;41.00;;;30.60;;
3253;SDS011;1639;42.804;23.342;2023-12-20T12:02:39;94.57;;;40.63;;
3253;SDS011;1639;42.804;23.342;2023-12-20T12:05:05;56.07;;;39.33;;
3253;SDS011;1639;42.804;23.342;2023-12-20T12:07:31;103.00;;;49.30;;
3253;SDS011;1639;42.804;23.342;2023-12-20T12:09:57;66.53;;;44.90;;
3253;SDS011;1639;42.804;23.342;2023-12-20T12:12:22;77.30;;;49.70;;
3253;SDS011;1639;42.804;23.342;2023-12-20T12:14:48;102.40;;;49.83;;
3253;SDS011;1639;42.804;23.342;2023-12-20T12:17:14;71.10;;;50.87;;
3253;SDS011;1639;42.804;23.342;2023-12-20T12:19:41;124.10;;;49.30;;
3253;SDS011;1639;42.804;23.342;2023-12-20T12:22:10;77.27;;;49.23;;
3253;SDS011;1639;42.804;23.342;2023-12-20T12:24:42;87.27;;;50.87;;
3253;SDS011;1639;42.804;23.342;2023-12-20T12:27:09;108.00;;;53.37;;
3253;SDS011;1639;42.804;23.342;2023-12-20T12:29:35;47.80;;;41.77;;
3253;SDS011;1639;42.804;23.342;2023-12-20T12:32:04;71.33;;;41.73;;
3253;SDS011;1639;42.804;23.342;2023-12-20T12:34:32;50.13;;;40.40;;
3253;SDS011;1639;42.804;23.342;2023-12-20T12:36:57;75.83;;;40.93;;
3253;SDS011;1639;42.804;23.342;2023-12-20T12:39:23;75.20;;;44.40;;
3253;SDS011;1639;42.804;23.342;2023-12-20T12:41:52;96.07;;;45.87;;
3253;SDS011;1639;42.804;23.342;2023-12-20T12:44:18;76.93;;;41.47;;
3253;SDS011;1639;42.804;23.342;2023-12-20T12:46:47;96.57;;;48.63;;
3253;SDS011;1639;42.804;23.342;2023-12-20T12:49:16;187.30;;;59.80;;
3253;SDS011;1639;42.804;23.342;2023-12-20T12:51:41;94.23;;;45.47;;
3253;SDS011;1639;42.804;23.342;2023-12-20T12:54:07;75.07;;;29.73;;
3253;SDS011;1639;42.804;23.342;2023-12-20T12:56:33;225.37;;;54.37;;
3253;SDS011;1639;42.804;23.342;2023-12-20T12:58:59;50.97;;;34.20;;
3253;SDS011;1639;42.804;23.342;2023-12-20T13:01:24;126.07;;;42.23;;
3253;SDS011;1639;42.804;23.342;2023-12-20T13:03:50;213.33;;;57.43;;
3253;SDS011;1639;42.804;23.342;2023-12-20T13:06:15;174.70;;;48.90;;
3253;SDS011;1639;42.804;23.342;2023-12-20T13:08:41;130.23;;;47.37;;
3253;SDS011;1639;42.804;23.342;2023-12-20T13:11:06;121.47;;;43.03;;
3253;SDS011;1639;42.804;23.342;2023-12-20T13:13:32;75.60;;;42.17;;
3253;SDS011;1639;42.804;23.342;2023-12-20T13:15:57;87.30;;;42.47;;
3253;SDS011;1639;42.804;23.342;2023-12-20T13:18:23;74.63;;;40.20;;
3253;SDS011;1639;42.804;23.342;2023-12-20T13:20:48;179.67;;;48.77;;
3253;SDS011;1639;42.804;23.342;2023-12-20T13:23:14;80.70;;;40.40;;
3253;SDS011;1639;42.804;23.342;2023-12-20T13:25:40;132.93;;;47.27;;
3253;SDS011;1639;42.804;23.342;2023-12-20T13:28:06;143.03;;;46.20;;
3253;SDS011;1639;42.804;23.342;2023-12-20T13:30:31;87.37;;;47.30;;
3253;SDS011;1639;42.804;23.342;2023-12-20T13:32:57;50.20;;;38.10;;
3253;SDS011;1639;42.804;23.342;2023-12-20T13:35:22;91.20;;;38.33;;
3253;SDS011;1639;42.804;23.342;2023-12-20T13:37:48;81.47;;;41.97;;
3253;SDS011;1639;42.804;23.342;2023-12-20T13:40:13;105.50;;;47.83;;
3253;SDS011;1639;42.804;23.342;2023-12-20T13:42:39;80.87;;;45.07;;
3253;SDS011;1639;42.804;23.342;2023-12-20T13:45:05;83.07;;;45.07;;
3253;SDS011;1639;42.804;23.342;2023-12-20T13:47:31;62.13;;;43.23;;
3253;SDS011;1639;42.804;23.342;2023-12-20T13:49:57;60.30;;;47.50;;
3253;SDS011;1639;42.804;23.342;2023-12-20T13:52:23;71.43;;;50.00;;
3253;SDS011;1639;42.804;23.342;2023-12-20T13:54:48;85.40;;;49.80;;
3253;SDS011;1639;42.804;23.342;2023-12-20T13:57:14;66.07;;;45.03;;
3253;SDS011;1639;42.804;23.342;2023-12-20T13:59:39;85.20;;;46.90;;
3253;SDS011;1639;42.804;23.342;2023-12-20T14:02:04;100.27;;;46.90;;
3253;SDS011;1639;42.804;23.342;2023-12-20T14:04:30;127.97;;;54.80;;
3253;SDS011;1639;42.804;23.342;2023-12-20T14:06:56;87.80;;;49.27;;
3253;SDS011;1639;42.804;23.342;2023-12-20T14:09:21;144.40;;;67.13;;
3253;SDS011;1639;42.804;23.342;2023-12-20T14:11:47;140.63;;;67.03;;
3253;SDS011;1639;42.804;23.342;2023-12-20T14:14:12;114.80;;;62.17;;
3253;SDS011;1639;42.804;23.342;2023-12-20T14:16:37;162.30;;;60.27;;
3253;SDS011;1639;42.804;23.342;2023-12-20T14:19:03;162.40;;;66.83;;
3253;SDS011;1639;42.804;23.342;2023-12-20T14:21:30;147.53;;;61.00;;
3253;SDS011;1639;42.804;23.342;2023-12-20T14:23:55;154.20;;;65.20;;
3253;SDS011;1639;42.804;23.342;2023-12-20T14:26:20;157.37;;;58.63;;
3253;SDS011;1639;42.804;23.342;2023-12-20T14:28:46;161.87;;;72.53;;
3253;SDS011;1639;42.804;23.342;2023-12-20T14:31:11;177.20;;;82.37;;
3253;SDS011;1639;42.804;23.342;2023-12-20T14:33:37;177.53;;;64.27;;